createdAt,value
2018-08-14T07:37:55.030Z,6.35
2018-08-14T07:40:22.082Z,6.28
2018-08-14T07:42:49.132Z,7.25
2018-08-14T07:45:17.844Z,5.95
2018-08-14T07:47:44.839Z,6.43
2018-08-14T07:50:11.963Z,6.03
2018-08-14T07:52:38.964Z,6.20
2018-08-14T07:55:06.008Z,6.00
2018-08-14T07:57:33.060Z,6.05
2018-08-14T08:02:57.875Z,5.57
2018-08-14T08:05:25.025Z,6.00
2018-08-14T08:07:52.073Z,5.53
2018-08-14T08:10:19.179Z,5.28
2018-08-14T08:12:47.508Z,5.28
2018-08-14T08:15:14.756Z,4.43
2018-08-14T08:17:41.809Z,4.85
2018-08-14T08:20:08.916Z,5.00
2018-08-14T08:22:35.977Z,5.53
2018-08-14T08:25:03.974Z,5.53
2018-08-14T08:27:31.028Z,5.43
2018-08-14T08:29:58.071Z,5.70
2018-08-14T08:32:25.119Z,5.80
2018-08-14T08:34:54.278Z,5.45
2018-08-14T08:37:21.369Z,5.72
2018-08-14T08:39:48.417Z,5.72
2018-08-14T08:42:16.396Z,5.90
2018-08-14T08:44:43.543Z,5.78
2018-08-14T08:47:10.585Z,5.75
2018-08-14T08:52:37.973Z,6.40
2018-08-14T08:55:23.090Z,5.25
2018-08-14T08:58:08.678Z,5.90
2018-08-14T09:00:35.769Z,5.37
2018-08-14T09:03:03.949Z,4.72
2018-08-14T09:05:30.993Z,5.30
2018-08-14T09:07:58.042Z,5.07
2018-08-14T09:10:26.219Z,5.43
2018-08-14T09:12:53.269Z,5.30
2018-08-14T09:15:21.956Z,5.40
2018-08-14T09:17:49.103Z,4.90
2018-08-14T09:20:16.144Z,4.60
2018-08-14T09:22:43.617Z,4.60
2018-08-14T09:25:10.767Z,4.35
2018-08-14T09:27:37.809Z,4.85
2018-08-14T09:30:05.577Z,4.70
2018-08-14T09:32:32.624Z,4.60
2018-08-14T09:35:01.052Z,4.40
2018-08-14T09:37:30.330Z,4.40
2018-08-14T09:39:58.485Z,5.35
2018-08-14T09:42:25.602Z,4.45
2018-08-14T09:44:52.645Z,4.37
2018-08-14T09:47:19.698Z,4.80
2018-08-14T09:49:46.765Z,4.50
2018-08-14T09:52:14.204Z,4.45
2018-08-14T09:54:43.046Z,4.45
2018-08-14T09:57:10.136Z,4.87
2018-08-14T09:59:37.392Z,4.85
2018-08-14T10:02:05.275Z,4.32
2018-08-14T10:04:32.415Z,4.70
2018-08-14T10:07:00.893Z,5.25
2018-08-14T10:09:27.944Z,5.15
2018-08-14T10:11:54.988Z,4.60
2018-08-14T10:14:22.036Z,4.68
2018-08-14T10:16:49.094Z,4.47
2018-08-14T10:19:16.243Z,4.22
2018-08-14T10:21:43.285Z,4.10
2018-08-14T10:24:10.335Z,5.00
2018-08-14T10:26:37.520Z,5.00
2018-08-14T10:29:04.540Z,4.57
2018-08-14T10:31:31.583Z,3.85
2018-08-14T10:33:59.552Z,4.05
2018-08-14T10:36:28.624Z,4.50
2018-08-14T10:38:55.698Z,4.78
2018-08-14T10:41:22.847Z,4.25
2018-08-14T10:43:52.014Z,4.30
2018-08-14T10:46:19.953Z,4.03
2018-08-14T10:48:46.968Z,4.05
2018-08-14T10:51:14.218Z,4.28
2018-08-14T10:53:42.807Z,3.80
2018-08-14T10:56:10.977Z,3.80
2018-08-14T10:58:38.746Z,4.53
2018-08-14T11:01:05.796Z,3.90
2018-08-14T11:03:33.875Z,4.32
2018-08-14T11:06:01.425Z,4.20
2018-08-14T11:08:28.437Z,4.25
2018-08-14T11:10:56.858Z,4.50
2018-08-14T11:13:24.316Z,4.00
2018-08-14T11:15:51.359Z,3.80
2018-08-14T11:18:18.682Z,4.18
2018-08-14T11:20:46.480Z,4.50
2018-08-14T11:23:14.041Z,4.50
2018-08-14T11:25:41.090Z,4.68
2018-08-14T11:28:09.571Z,4.55
2018-08-14T11:30:37.645Z,4.30
2018-08-14T11:33:04.660Z,4.40
2018-08-14T11:35:31.844Z,4.43
2018-08-14T11:37:58.898Z,4.30
2018-08-14T11:40:27.069Z,4.50
2018-08-14T11:42:54.124Z,4.25
2018-08-14T11:45:21.166Z,4.15
2018-08-14T11:47:49.240Z,4.35
2018-08-14T11:50:16.388Z,4.03
2018-08-14T11:52:44.359Z,3.92
2018-08-14T11:55:11.412Z,3.70
2018-08-14T11:57:39.421Z,3.85
2018-08-14T12:00:06.529Z,3.90
2018-08-14T12:02:33.680Z,4.30
2018-08-14T12:05:01.342Z,4.10
2018-08-14T12:07:28.396Z,4.10
2018-08-14T12:09:55.592Z,4.25
2018-08-14T12:12:22.804Z,4.15
2018-08-14T12:14:49.945Z,4.70
2018-08-14T12:17:17.003Z,4.05
2018-08-14T12:19:45.785Z,4.43
2018-08-14T12:22:12.837Z,4.45
2018-08-14T12:24:40.297Z,4.43
2018-08-14T12:27:07.340Z,4.25
2018-08-14T12:29:34.701Z,4.43
2018-08-14T12:32:01.752Z,3.90
2018-08-14T12:34:28.999Z,3.72
2018-08-14T12:36:56.150Z,4.50
2018-08-14T12:39:23.610Z,4.60
2018-08-14T12:41:51.781Z,4.43
2018-08-14T12:44:19.961Z,4.30
2018-08-14T12:46:48.343Z,4.32
2018-08-14T12:49:33.434Z,4.50
2018-08-14T12:52:03.840Z,4.78
2018-08-14T12:54:31.298Z,4.40
2018-08-14T12:56:58.783Z,4.62
2018-08-14T12:59:26.720Z,5.05
2018-08-14T13:01:54.204Z,4.68
2018-08-14T13:04:21.228Z,4.70
2018-08-14T13:06:48.454Z,4.93
2018-08-14T13:09:15.603Z,4.85
2018-08-14T13:11:44.177Z,5.10
2018-08-14T13:14:11.369Z,4.70
2018-08-14T13:16:38.685Z,4.62
2018-08-14T13:19:05.773Z,4.93
2018-08-14T13:21:34.746Z,5.05
2018-08-14T13:24:02.644Z,4.62
2018-08-14T13:26:31.191Z,4.60
2018-08-14T13:28:58.266Z,4.80
2018-08-14T13:31:25.322Z,4.68
2018-08-14T13:33:53.594Z,3.80
2018-08-14T13:36:21.467Z,3.15
2018-08-14T13:38:49.636Z,3.10
2018-08-14T13:41:16.695Z,3.17
2018-08-14T13:43:44.040Z,2.70
2018-08-14T13:46:11.192Z,3.00
2018-08-14T13:48:38.819Z,3.03
2018-08-14T13:51:05.909Z,3.55
2018-08-14T13:53:33.066Z,3.65
2018-08-14T13:56:00.825Z,4.10
2018-08-14T13:58:27.867Z,3.70
2018-08-14T14:00:55.128Z,2.75
2018-08-14T14:03:22.176Z,3.00
2018-08-14T14:05:49.219Z,2.78
2018-08-14T14:08:16.206Z,2.37
2018-08-14T14:10:44.344Z,2.55
2018-08-14T14:13:11.438Z,2.22
2018-08-14T14:15:38.437Z,2.42
2018-08-14T14:18:05.587Z,2.45
2018-08-14T14:20:32.645Z,2.80
2018-08-14T14:22:59.690Z,2.60
2018-08-14T14:25:26.837Z,2.72
2018-08-14T14:27:54.193Z,2.70
2018-08-14T14:30:41.437Z,3.20
2018-08-14T14:33:11.949Z,3.78
2018-08-14T14:35:53.978Z,3.70
2018-08-14T14:38:21.505Z,3.00
2018-08-14T14:40:48.870Z,4.57
2018-08-14T14:45:58.807Z,3.33
2018-08-14T14:48:29.407Z,3.50
2018-08-14T14:51:07.000Z,3.75
2018-08-14T14:53:34.998Z,3.78
2018-08-14T14:56:03.411Z,3.80
2018-08-14T14:58:30.456Z,4.50
2018-08-14T15:00:57.812Z,5.32
2018-08-14T15:03:26.095Z,5.80
2018-08-14T15:05:53.246Z,4.97
2018-08-14T15:08:20.289Z,6.07
2018-08-14T15:10:47.549Z,4.87
2018-08-14T15:13:15.005Z,4.55
2018-08-14T15:15:42.024Z,5.10
2018-08-14T15:18:10.633Z,4.62
2018-08-14T15:20:37.686Z,5.07
2018-08-14T15:23:05.346Z,5.25
2018-08-14T15:25:32.398Z,7.87
2018-08-14T15:27:59.550Z,4.97
2018-08-14T15:30:26.599Z,4.47
2018-08-14T15:32:53.618Z,4.10
2018-08-14T15:35:20.694Z,3.97
2018-08-14T15:37:47.846Z,4.30
2018-08-14T15:40:16.017Z,4.47
2018-08-14T15:42:43.066Z,4.10
2018-08-14T15:45:10.216Z,4.35
2018-08-14T15:47:37.960Z,4.20
2018-08-14T15:50:06.157Z,3.10
2018-08-14T15:52:35.051Z,2.12
2018-08-14T15:55:02.112Z,2.00
2018-08-14T15:57:29.145Z,2.45
2018-08-14T15:59:56.295Z,1.98
2018-08-14T16:02:23.345Z,1.50
2018-08-14T16:04:50.599Z,2.10
2018-08-14T16:07:17.647Z,2.05
2018-08-14T16:10:03.150Z,1.80
2018-08-14T16:12:45.402Z,1.45
2018-08-14T16:15:29.714Z,1.48
2018-08-14T16:18:03.478Z,1.42
2018-08-14T16:20:33.006Z,1.52
2018-08-14T16:23:00.054Z,2.08
2018-08-14T16:25:27.511Z,1.80
2018-08-14T16:27:54.823Z,1.50
2018-08-14T16:30:25.291Z,1.60
2018-08-14T16:32:52.662Z,1.27
2018-08-14T16:35:19.801Z,1.15
2018-08-14T16:37:50.024Z,1.27
2018-08-14T16:40:17.067Z,1.15
2018-08-14T16:42:45.142Z,1.12
2018-08-14T16:45:12.292Z,1.40
2018-08-14T16:47:39.442Z,2.65
2018-08-14T16:50:09.340Z,1.30
2018-08-14T16:52:36.409Z,1.40
2018-08-14T16:55:03.462Z,1.30
2018-08-14T16:57:44.325Z,1.30
2018-08-14T17:00:11.483Z,1.10
2018-08-14T17:02:39.352Z,1.30
2018-08-14T17:05:07.215Z,1.40
2018-08-14T17:07:35.428Z,1.55
2018-08-14T17:10:04.184Z,1.70
2018-08-14T17:12:32.258Z,1.60
2018-08-14T17:14:59.302Z,1.70
2018-08-14T17:17:26.351Z,1.67
2018-08-14T17:19:54.632Z,1.80
2018-08-14T17:22:22.802Z,1.98
2018-08-14T17:24:49.856Z,2.40
2018-08-14T17:27:17.207Z,2.40
2018-08-14T17:29:46.697Z,2.95
2018-08-14T17:32:15.770Z,2.75
2018-08-14T17:34:43.831Z,2.90
2018-08-14T17:37:11.033Z,3.10
2018-08-14T17:39:38.116Z,3.37
2018-08-14T17:42:05.132Z,3.65
2018-08-14T17:44:32.694Z,3.45
2018-08-14T17:46:59.944Z,4.15
2018-08-14T17:49:26.997Z,3.83
2018-08-14T17:51:55.458Z,3.28
2018-08-14T17:54:42.332Z,3.03
2018-08-14T17:57:29.042Z,2.47
2018-08-14T18:00:14.798Z,2.30
2018-08-14T18:03:00.094Z,2.60
2018-08-14T18:05:28.588Z,2.60
2018-08-14T18:07:55.695Z,2.30
2018-08-14T18:10:22.749Z,2.20
2018-08-14T18:12:49.770Z,2.33
2018-08-14T18:15:18.035Z,2.00
2018-08-14T18:17:45.126Z,2.30
2018-08-14T18:20:14.124Z,2.10
2018-08-14T18:22:41.164Z,2.15
2018-08-14T18:25:09.235Z,2.35
2018-08-14T18:27:37.113Z,2.30
2018-08-14T18:30:05.181Z,2.20
2018-08-14T18:32:34.270Z,2.62
2018-08-14T18:35:01.422Z,2.12
2018-08-14T18:37:28.480Z,2.37
2018-08-14T18:39:55.826Z,2.20
2018-08-14T18:42:41.704Z,2.30
2018-08-14T18:45:08.764Z,2.03
2018-08-14T18:47:45.650Z,2.37
2018-08-14T18:50:16.089Z,2.50
2018-08-14T18:52:43.119Z,2.20
2018-08-14T18:55:10.578Z,2.10
2018-08-14T18:57:38.037Z,2.62
2018-08-14T19:00:05.091Z,2.70
2018-08-14T19:02:32.156Z,2.62
2018-08-14T19:04:59.235Z,2.47
2018-08-14T19:07:26.336Z,2.00
2018-08-14T19:09:54.508Z,2.40
2018-08-14T19:12:22.580Z,2.37
2018-08-14T19:14:49.732Z,2.55
2018-08-14T19:17:16.780Z,2.30
2018-08-14T19:19:43.932Z,2.40
2018-08-14T19:22:12.618Z,2.65
2018-08-14T19:24:40.463Z,2.80
2018-08-14T19:27:07.536Z,2.42
2018-08-14T19:29:35.096Z,2.70
2018-08-14T19:32:04.152Z,2.60
2018-08-14T19:34:31.349Z,3.22
2018-08-14T19:37:00.440Z,2.85
2018-08-14T19:39:49.762Z,2.85
2018-08-14T19:42:36.260Z,2.67
2018-08-14T19:45:21.187Z,2.75
2018-08-14T19:48:07.890Z,2.80
2018-08-14T19:50:35.864Z,2.85
2018-08-14T19:53:04.417Z,3.10
2018-08-14T19:55:31.765Z,2.90
2018-08-14T19:57:58.854Z,3.00
2018-08-14T20:00:26.003Z,2.70
2018-08-14T20:02:54.386Z,3.10
2018-08-14T20:05:21.950Z,2.97
2018-08-14T20:07:49.303Z,2.90
2018-08-14T20:10:16.354Z,2.40
2018-08-14T20:12:43.500Z,2.37
2018-08-14T20:15:10.651Z,2.60
2018-08-14T20:17:38.708Z,2.50
2018-08-14T20:20:05.778Z,2.08
2018-08-14T20:22:32.820Z,2.12
2018-08-14T20:24:59.870Z,1.90
2018-08-14T20:27:27.019Z,2.03
2018-08-14T20:30:09.859Z,2.10
2018-08-14T20:32:57.182Z,1.65
2018-08-14T20:35:25.134Z,1.80
2018-08-14T20:37:52.182Z,2.00
2018-08-14T20:40:19.336Z,2.10
2018-08-14T20:42:46.386Z,1.90
2018-08-14T20:45:14.249Z,2.00
2018-08-14T20:47:41.303Z,1.80
2018-08-14T20:50:08.346Z,1.87
2018-08-14T20:52:36.692Z,1.73
2018-08-14T20:55:05.522Z,1.87
2018-08-14T20:57:33.595Z,1.95
2018-08-14T21:00:01.254Z,1.73
2018-08-14T21:02:28.516Z,1.50
2018-08-14T21:04:55.622Z,1.90
2018-08-14T21:07:22.704Z,1.70
2018-08-14T21:09:50.945Z,1.70
2018-08-14T21:12:18.343Z,1.67
2018-08-14T21:14:45.699Z,1.80
2018-08-14T21:17:13.055Z,1.70
2018-08-14T21:19:40.509Z,1.83
2018-08-14T21:22:07.563Z,1.80
2018-08-14T21:24:34.918Z,1.60
2018-08-14T21:27:02.579Z,1.50
2018-08-14T21:29:30.035Z,1.67
2018-08-14T21:31:57.492Z,1.80
2018-08-14T21:34:25.994Z,1.60
2018-08-14T21:36:58.814Z,1.40
2018-08-14T21:39:26.715Z,1.62
2018-08-14T21:41:53.779Z,1.70
2018-08-14T21:44:20.830Z,2.00
2018-08-14T21:46:47.873Z,1.85
2018-08-14T21:49:14.922Z,1.67
2018-08-14T21:51:42.483Z,2.22
2018-08-14T21:54:10.049Z,1.80
2018-08-14T21:59:22.573Z,1.62
2018-08-14T22:01:50.856Z,1.80
2018-08-14T22:04:17.899Z,1.73
2018-08-14T22:06:44.948Z,1.75
2018-08-14T22:09:12.003Z,2.03
2018-08-14T22:11:39.119Z,2.05
2018-08-14T22:14:06.197Z,1.80
2018-08-14T22:16:33.244Z,2.30
2018-08-14T22:19:01.419Z,2.47
2018-08-14T22:21:28.500Z,1.98
2018-08-14T22:23:55.521Z,2.53
2018-08-14T22:26:22.566Z,2.17
2018-08-14T22:28:49.615Z,2.17
2018-08-14T22:31:16.672Z,2.10
2018-08-14T22:33:43.711Z,2.20
2018-08-14T22:36:10.760Z,2.22
2018-08-14T22:38:37.815Z,2.17
2018-08-14T22:41:04.965Z,2.75
2018-08-14T22:43:32.032Z,2.53
2018-08-14T22:45:59.057Z,2.53
2018-08-14T22:48:26.111Z,2.70
2018-08-14T22:50:53.153Z,2.47
2018-08-14T22:53:20.789Z,2.90
2018-08-14T22:55:47.873Z,2.67
2018-08-14T22:58:14.914Z,2.83
2018-08-14T23:00:41.963Z,3.05
2018-08-14T23:03:10.135Z,3.10
2018-08-14T23:05:37.289Z,3.12
2018-08-14T23:08:04.337Z,3.30
2018-08-14T23:10:31.399Z,3.47
2018-08-14T23:12:58.544Z,3.53
2018-08-14T23:15:25.587Z,3.55
2018-08-14T23:17:52.634Z,3.78
2018-08-14T23:20:20.092Z,3.50
2018-08-14T23:22:47.146Z,3.55
2018-08-14T23:25:14.301Z,3.15
2018-08-14T23:27:41.341Z,3.78
2018-08-14T23:30:08.390Z,3.70
2018-08-14T23:32:35.444Z,4.15
2018-08-14T23:35:02.691Z,3.55
2018-08-14T23:37:30.361Z,3.65
2018-08-14T23:39:57.403Z,3.70
2018-08-14T23:42:25.276Z,4.25
2018-08-14T23:44:52.324Z,3.90
2018-08-14T23:47:19.334Z,3.83
2018-08-14T23:49:46.427Z,3.50
2018-08-14T23:52:13.469Z,3.03
2018-08-14T23:54:40.725Z,3.12
2018-08-14T23:57:07.768Z,3.03
2018-08-14T23:59:34.781Z,3.22
